Time;durP1;ratioP1;P1;durP2;ratioP2;P2;SDS_P1;SDS_P2;PMS_P1;PMS_P2;Temp;Humidity;BMP_temperature;BMP_pressure;BME280_temperature;BME280_humidity;BME280_pressure;Samples;Min_cycle;Max_cycle;Signal;HPM_P1;HPM_P2
2022/10/05 00:05:39;;;;;;;10.07;5.20;;;;;;;13.48;nan;100639.66;31848999;27;20051;-70
2022/10/05 00:20:42;;;;;;;15.33;6.87;;;;;;;13.44;nan;100638.25;31844974;27;20058;-71
2022/10/05 00:35:44;;;;;;;11.47;6.17;;;;;;;13.30;nan;100645.53;31843486;27;20046;-70
2022/10/05 00:51:23;;;;;;;9.27;4.03;;;;;;;12.98;nan;100650.88;31828270;27;20078;-71
2022/10/05 01:06:53;;;;;;;9.90;4.40;;;;;;;13.05;nan;100674.47;31838664;27;20526;-71
2022/10/05 01:22:27;;;;;;;14.00;7.00;;;;;;;12.91;nan;100691.91;31851481;27;20389;-70
2022/10/05 01:37:34;;;;;;;11.83;5.30;;;;;;;12.90;nan;100714.88;31852011;27;20062;-70
2022/10/05 01:52:58;;;;;;;16.67;9.33;;;;;;;12.44;nan;100721.97;31860056;27;20604;-70
2022/10/05 02:08:07;;;;;;;14.63;7.97;;;;;;;12.21;nan;100736.34;31850832;27;20051;-70
2022/10/05 02:23:22;;;;;;;13.67;10.13;;;;;;;12.12;nan;100741.53;31859741;27;20074;-70
2022/10/05 02:38:43;;;;;;;13.87;9.80;;;;;;;12.20;nan;100774.88;31858999;27;20050;-70
2022/10/05 02:54:00;;;;;;;10.00;6.33;;;;;;;12.17;nan;100783.84;31850329;27;20063;-71
2022/10/05 03:09:05;;;;;;;12.60;6.43;;;;;;;11.99;nan;100813.28;31858554;27;20051;-70
2022/10/05 03:24:25;;;;;;;17.53;7.23;;;;;;;11.82;nan;100828.66;31859338;27;20047;-69
2022/10/05 03:39:39;;;;;;;18.10;8.60;;;;;;;11.73;nan;100834.59;31855685;27;20043;-70
2022/10/05 03:54:49;;;;;;;18.80;9.30;;;;;;;12.03;nan;100849.38;31618359;27;20067;-70
2022/10/05 04:09:52;;;;;;;12.63;8.37;;;;;;;11.88;nan;100865.09;31595229;28;20052;-71
2022/10/05 04:25:14;;;;;;;13.40;7.40;;;;;;;11.90;nan;100879.84;31590904;28;20052;-71
2022/10/05 04:40:54;;;;;;;22.10;11.67;;;;;;;12.51;nan;100893.41;31584004;28;20055;-70
2022/10/05 04:56:19;;;;;;;13.53;5.57;;;;;;;13.55;nan;100874.09;31830010;27;20082;-71
2022/10/05 05:11:33;;;;;;;11.93;5.83;;;;;;;15.08;nan;100881.59;31835433;27;20133;-70
2022/10/05 05:27:06;;;;;;;7.13;4.30;;;;;;;15.97;nan;100882.66;31840467;27;20106;-71
2022/10/05 05:42:11;;;;;;;7.77;3.70;;;;;;;17.30;nan;100912.91;31843474;27;20054;-72
2022/10/05 05:57:18;;;;;;;12.67;6.27;;;;;;;18.76;nan;100926.75;31838583;27;20143;-73
2022/10/05 06:12:24;;;;;;;5.13;3.27;;;;;;;19.89;nan;100916.38;31852845;27;20081;-72
2022/10/05 06:27:53;;;;;;;8.55;3.08;;;;;;;20.74;nan;100947.50;31845951;27;20051;-71
2022/10/05 06:43:22;;;;;;;7.50;3.38;;;;;;;22.10;nan;100967.81;31849803;27;20508;-71
2022/10/05 06:58:39;;;;;;;4.47;3.33;;;;;;;22.82;nan;100974.97;31856268;27;20058;-72
2022/10/05 07:14:46;;;;;;;8.15;2.50;;;;;;;23.72;nan;100960.97;31851055;27;20408;-71
2022/10/05 07:30:02;;;;;;;6.55;2.35;;;;;;;22.94;nan;100960.03;31641512;27;20527;-72
2022/10/05 07:45:28;;;;;;;22.35;11.07;;;;;;;21.97;nan;100970.03;31826019;27;20063;-72
2022/10/05 08:00:42;;;;;;;6.68;2.60;;;;;;;21.84;nan;100977.88;31848520;27;20055;-73
2022/10/05 08:15:49;;;;;;;5.87;2.20;;;;;;;21.27;nan;100986.28;31845989;27;20066;-78
2022/10/05 08:31:14;;;;;;;4.70;2.70;;;;;;;21.25;nan;100997.06;31845364;27;20046;-85
2022/10/05 08:46:46;;;;;;;4.38;2.45;;;;;;;22.16;nan;101003.09;31841617;27;20439;-72
2022/10/05 09:02:19;;;;;;;3.53;2.63;;;;;;;23.54;nan;101011.16;31855069;27;20047;-72
2022/10/05 09:17:27;;;;;;;3.58;2.42;;;;;;;22.30;nan;101025.19;31834015;27;20047;-70
2022/10/05 09:32:56;;;;;;;3.95;2.70;;;;;;;22.05;nan;101020.22;31835376;27;20047;-84
2022/10/05 09:48:10;;;;;;;2.88;2.17;;;;;;;24.62;nan;101024.31;31854281;27;20146;-72
2022/10/05 10:03:49;;;;;;;3.30;2.38;;;;;;;25.20;nan;101005.50;31857362;27;20058;-74
2022/10/05 10:19:26;;;;;;;4.10;2.58;;;;;;;26.16;nan;101016.41;31845740;27;20070;-73
2022/10/05 10:34:40;;;;;;;4.22;2.35;;;;;;;26.25;nan;101000.72;31851095;27;20051;-73
2022/10/05 10:50:17;;;;;;;4.55;2.65;;;;;;;25.61;nan;100982.91;31845162;27;20051;-72
2022/10/05 11:05:34;;;;;;;3.90;2.60;;;;;;;23.86;nan;101003.72;31741785;27;20054;-74
2022/10/05 11:20:54;;;;;;;4.22;2.65;;;;;;;25.60;nan;100998.06;31838938;27;20055;-73
2022/10/05 11:36:34;;;;;;;4.60;2.95;;;;;;;27.55;nan;100977.66;31839955;27;20054;-72
2022/10/05 11:51:40;;;;;;;2.80;2.10;;;;;;;25.69;nan;100975.66;31837273;27;20431;-73
2022/10/05 12:07:06;;;;;;;3.33;2.50;;;;;;;22.93;nan;100983.41;31849785;27;20404;-72
2022/10/05 12:22:30;;;;;;;5.07;2.67;;;;;;;22.26;nan;100987.91;31838320;27;20059;-73
2022/10/05 12:37:53;;;;;;;5.47;2.33;;;;;;;21.54;nan;101009.44;31845228;27;20377;-72
2022/10/05 12:53:18;;;;;;;2.10;1.90;;;;;;;21.42;nan;101000.94;31839835;27;20056;-73
2022/10/05 13:08:44;;;;;;;3.33;2.35;;;;;;;21.04;nan;101000.84;31851952;27;20054;-72
2022/10/05 13:24:16;;;;;;;4.13;2.55;;;;;;;20.99;nan;101015.28;31871917;27;20050;-72
2022/10/05 13:39:37;;;;;;;3.25;1.77;;;;;;;20.79;nan;101034.41;31865820;27;20078;-73
2022/10/05 13:55:05;;;;;;;3.30;2.13;;;;;;;20.44;nan;101032.06;31854158;27;20447;-73
2022/10/05 14:10:13;;;;;;;3.45;1.83;;;;;;;19.98;nan;101045.91;31863835;27;20424;-72
2022/10/05 14:25:16;;;;;;;3.65;2.50;;;;;;;19.60;nan;101073.13;31854350;27;20051;-73
2022/10/05 14:40:26;;;;;;;2.20;1.70;;;;;;;19.30;nan;101086.50;31860439;27;20070;-72
2022/10/05 14:55:31;;;;;;;6.07;2.85;;;;;;;19.03;nan;101078.13;31843234;27;20494;-73
2022/10/05 15:10:45;;;;;;;4.37;1.87;;;;;;;18.80;nan;101119.91;31862654;27;20047;-73
2022/10/05 15:25:56;;;;;;;7.53;4.27;;;;;;;18.49;nan;101130.84;31865339;27;20055;-72
2022/10/05 15:41:18;;;;;;;4.93;2.23;;;;;;;18.13;nan;101145.06;31830747;27;20058;-73
2022/10/05 15:56:29;;;;;;;5.93;2.27;;;;;;;17.95;nan;101154.66;31844341;27;20079;-74
2022/10/05 16:11:46;;;;;;;5.10;3.07;;;;;;;17.77;nan;101154.50;31835415;27;20066;-72
2022/10/05 16:27:03;;;;;;;3.07;2.07;;;;;;;17.57;nan;101170.41;31845466;27;20134;-73
2022/10/05 16:42:31;;;;;;;2.73;2.07;;;;;;;17.39;nan;101179.22;31832368;27;20062;-73
2022/10/05 16:57:45;;;;;;;3.90;2.73;;;;;;;17.27;nan;101190.94;31821998;27;20081;-72
2022/10/05 17:13:22;;;;;;;13.00;6.53;;;;;;;17.23;nan;101217.75;31845363;27;20043;-74
2022/10/05 17:28:56;;;;;;;9.57;4.50;;;;;;;16.67;nan;101221.66;31809260;27;20039;-73
2022/10/05 17:44:23;;;;;;;8.47;4.60;;;;;;;16.57;nan;101228.13;31856983;27;20081;-74
2022/10/05 17:59:54;;;;;;;12.57;4.30;;;;;;;16.70;nan;101220.78;31840317;27;20563;-72
2022/10/05 18:14:59;;;;;;;8.60;3.53;;;;;;;16.82;nan;101223.97;31843839;27;20051;-73
2022/10/05 18:30:13;;;;;;;5.80;3.70;;;;;;;16.89;nan;101226.53;31840640;27;20052;-73
2022/10/05 18:45:26;;;;;;;5.10;3.27;;;;;;;16.99;nan;101244.69;31832819;27;20307;-70
2022/10/05 19:00:42;;;;;;;7.47;3.30;;;;;;;16.90;nan;101252.75;31834224;27;20080;-72
2022/10/05 19:16:16;;;;;;;;;;;;;;;16.75;nan;101257.09;31840837;27;20059;-72
2022/10/05 19:31:44;;;;;;;4.57;3.17;;;;;;;16.56;nan;101258.72;31827153;27;19934;-71
2022/10/05 19:46:52;;;;;;;5.73;2.93;;;;;;;16.49;nan;101259.69;31832757;27;20077;-72
2022/10/05 20:01:56;;;;;;;31.63;12.97;;;;;;;16.53;nan;101265.09;31831303;27;20051;-72
2022/10/05 20:32:51;;;;;;;6.43;3.40;;;;;;;16.92;nan;101272.28;31827560;27;20046;-72
2022/10/05 20:47:53;;;;;;;7.57;3.10;;;;;;;16.97;nan;101271.78;31842111;27;20059;-73
2022/10/05 21:02:56;;;;;;;7.33;3.10;;;;;;;16.26;nan;101301.00;31830922;27;20063;-72
2022/10/05 21:17:58;;;;;;;4.70;3.03;;;;;;;16.17;nan;101298.06;31830974;27;20054;-74
2022/10/05 21:32:59;;;;;;;5.00;2.97;;;;;;;16.12;nan;101302.06;31847848;27;20078;-72
2022/10/05 21:48:02;;;;;;;5.50;3.10;;;;;;;15.82;nan;101305.91;31874740;27;20534;-72
2022/10/05 22:03:04;;;;;;;8.47;3.27;;;;;;;15.50;nan;101295.63;31858583;27;20047;-72
2022/10/05 22:18:14;;;;;;;9.17;4.07;;;;;;;15.33;nan;101264.69;31864317;27;20051;-71
2022/10/05 22:33:16;;;;;;;8.40;3.80;;;;;;;15.18;nan;101285.31;31851061;27;20062;-72
2022/10/05 22:48:18;;;;;;;8.27;3.70;;;;;;;15.25;nan;101298.84;31851981;27;20083;-72
2022/10/05 23:03:20;;;;;;;6.27;3.10;;;;;;;15.30;nan;101292.13;31854572;27;20066;-72
2022/10/05 23:18:22;;;;;;;9.83;4.87;;;;;;;15.43;nan;101292.25;31855521;27;20055;-72
2022/10/05 23:33:25;;;;;;;5.07;3.37;;;;;;;15.48;nan;101302.69;31851799;27;20043;-71
2022/10/05 23:48:26;;;;;;;7.73;3.60;;;;;;;15.65;nan;101307.06;31846952;27;20063;-71
